createdAt,value
2018-03-19T00:00:19.305Z,950.89
2018-03-19T00:01:19.245Z,950.86
2018-03-19T00:02:19.185Z,950.85
2018-03-19T00:03:19.150Z,950.87
2018-03-19T00:04:19.211Z,950.93
2018-03-19T00:05:19.050Z,950.90
2018-03-19T00:06:18.967Z,950.88
2018-03-19T00:07:18.902Z,950.90
2018-03-19T00:08:18.872Z,950.92
2018-03-19T00:09:19.001Z,950.90
2018-03-19T00:10:18.739Z,950.93
2018-03-19T00:11:18.676Z,950.94
2018-03-19T00:12:18.657Z,950.91
2018-03-19T00:13:18.582Z,950.90
2018-03-19T00:14:18.720Z,950.90
2018-03-19T00:15:18.483Z,950.97
2018-03-19T00:16:18.442Z,950.88
2018-03-19T00:17:18.383Z,950.89
2018-03-19T00:18:18.308Z,950.91
2018-03-19T00:19:18.423Z,950.93
2018-03-19T00:20:18.205Z,950.89
2018-03-19T00:21:18.156Z,950.89
2018-03-19T00:22:18.121Z,950.91
2018-03-19T00:23:18.073Z,950.90
2018-03-19T00:24:18.063Z,950.90
2018-03-19T00:25:17.910Z,950.85
2018-03-19T00:26:17.865Z,950.86
2018-03-19T00:27:17.804Z,950.87
2018-03-19T00:28:17.743Z,950.84
2018-03-19T00:29:17.916Z,950.91
2018-03-19T00:30:17.657Z,950.89
2018-03-19T00:31:17.608Z,950.93
2018-03-19T00:32:17.604Z,950.93
2018-03-19T00:33:17.473Z,950.97
2018-03-19T00:34:17.630Z,950.91
2018-03-19T00:35:17.393Z,950.88
2018-03-19T00:36:17.334Z,950.93
2018-03-19T00:37:17.288Z,950.90
2018-03-19T00:38:17.243Z,950.92
2018-03-19T00:39:17.335Z,950.91
2018-03-19T00:40:17.138Z,950.92
2018-03-19T00:41:17.056Z,950.90
2018-03-19T00:42:16.994Z,950.96
2018-03-19T00:43:16.999Z,950.94
2018-03-19T00:44:17.030Z,950.93
2018-03-19T00:45:16.809Z,950.88
2018-03-19T00:46:16.802Z,950.88
2018-03-19T00:47:16.715Z,950.91
2018-03-19T00:48:16.681Z,950.90
2018-03-19T00:49:16.832Z,950.91
2018-03-19T00:50:16.578Z,950.91
2018-03-19T00:51:16.486Z,950.94
2018-03-19T00:52:16.450Z,950.90
2018-03-19T00:53:16.392Z,950.92
2018-03-19T00:54:16.523Z,950.92
2018-03-19T00:55:16.327Z,950.91
2018-03-19T00:56:16.242Z,950.92
2018-03-19T00:57:16.184Z,950.89
2018-03-19T00:58:16.109Z,950.86
2018-03-19T00:59:16.233Z,950.83
2018-03-19T01:00:16.005Z,950.83
2018-03-19T01:01:15.964Z,950.81
2018-03-19T01:02:15.938Z,950.94
2018-03-19T01:03:15.869Z,950.83
2018-03-19T01:04:15.963Z,950.85
2018-03-19T01:05:15.718Z,950.85
2018-03-19T01:06:15.664Z,950.87
2018-03-19T01:07:15.649Z,950.89
2018-03-19T01:08:15.597Z,950.86
2018-03-19T01:09:15.730Z,950.85
2018-03-19T01:10:15.452Z,950.83
2018-03-19T01:11:15.473Z,950.87
2018-03-19T01:12:15.391Z,950.90
2018-03-19T01:13:15.322Z,950.86
2018-03-19T01:14:15.449Z,950.84
2018-03-19T01:15:15.216Z,950.84
2018-03-19T01:16:15.128Z,950.86
2018-03-19T01:17:15.083Z,950.85
2018-03-19T01:18:15.035Z,950.84
2018-03-19T01:19:15.149Z,950.84
2018-03-19T01:20:14.927Z,950.82
2018-03-19T01:21:14.850Z,950.82
2018-03-19T01:22:14.842Z,950.78
2018-03-19T01:23:14.779Z,950.78
2018-03-19T01:24:14.855Z,950.77
2018-03-19T01:25:14.634Z,950.79
2018-03-19T01:26:14.642Z,950.83
2018-03-19T01:27:14.544Z,950.72
2018-03-19T01:28:14.482Z,950.73
2018-03-19T01:29:14.640Z,950.72
2018-03-19T01:30:14.423Z,950.72
2018-03-19T01:31:14.316Z,950.67
2018-03-19T01:32:14.273Z,950.67
2018-03-19T01:33:14.203Z,950.73
2018-03-19T01:34:14.356Z,950.72
2018-03-19T01:35:14.159Z,950.74
2018-03-19T01:36:14.066Z,950.71
2018-03-19T01:37:14.027Z,950.72
2018-03-19T01:38:13.924Z,950.71
2018-03-19T01:39:14.048Z,950.71
2018-03-19T01:40:13.841Z,950.78
2018-03-19T01:41:13.828Z,950.73
2018-03-19T01:42:13.761Z,950.77
2018-03-19T01:43:13.722Z,950.75
2018-03-19T01:44:13.766Z,950.73
2018-03-19T01:45:13.592Z,950.78
2018-03-19T01:46:13.518Z,950.71
2018-03-19T01:47:13.475Z,950.75
2018-03-19T01:48:13.391Z,950.76
2018-03-19T01:49:13.547Z,950.79
2018-03-19T01:50:13.272Z,950.76
2018-03-19T01:51:13.234Z,950.74
2018-03-19T01:52:13.214Z,950.76
2018-03-19T01:53:13.109Z,950.74
2018-03-19T01:54:13.266Z,950.75
2018-03-19T01:55:13.034Z,950.70
2018-03-19T01:56:12.976Z,950.68
2018-03-19T01:57:12.939Z,950.70
2018-03-19T01:58:12.884Z,950.70
2018-03-19T01:59:12.954Z,950.74
2018-03-19T02:00:12.764Z,950.71
2018-03-19T02:01:12.703Z,950.77
2018-03-19T02:02:12.672Z,950.71
2018-03-19T02:03:12.595Z,950.68
2018-03-19T02:04:12.714Z,950.71
2018-03-19T02:05:12.507Z,950.70
2018-03-19T02:06:12.443Z,950.72
2018-03-19T02:07:12.433Z,950.74
2018-03-19T02:08:12.320Z,950.72
2018-03-19T02:09:12.457Z,950.73
2018-03-19T02:10:12.225Z,950.72
2018-03-19T02:11:12.180Z,950.71
2018-03-19T02:12:12.139Z,950.67
2018-03-19T02:13:12.083Z,950.72
2018-03-19T02:14:12.174Z,950.75
2018-03-19T02:15:11.946Z,950.72
2018-03-19T02:16:11.872Z,950.73
2018-03-19T02:17:11.853Z,950.71
2018-03-19T02:18:11.805Z,950.73
2018-03-19T02:19:11.718Z,950.72
2018-03-19T02:20:11.647Z,950.73
2018-03-19T02:21:11.770Z,950.74
2018-03-19T02:22:11.594Z,950.69
2018-03-19T02:23:11.518Z,950.71
2018-03-19T02:24:11.503Z,950.69
2018-03-19T02:25:11.378Z,950.69
2018-03-19T02:26:11.473Z,950.73
2018-03-19T02:27:11.301Z,950.67
2018-03-19T02:28:11.249Z,950.76
2018-03-19T02:29:11.152Z,950.69
2018-03-19T02:30:11.129Z,950.72
2018-03-19T02:31:11.283Z,950.71
2018-03-19T02:32:11.052Z,950.74
2018-03-19T02:33:10.984Z,950.67
2018-03-19T02:34:10.894Z,950.65
2018-03-19T02:35:10.837Z,950.67
2018-03-19T02:36:10.986Z,950.62
2018-03-19T02:37:10.796Z,950.63
2018-03-19T02:38:10.668Z,950.67
2018-03-19T02:39:10.633Z,950.64
2018-03-19T02:40:10.617Z,950.63
2018-03-19T02:41:10.678Z,950.67
2018-03-19T02:42:10.525Z,950.66
2018-03-19T02:43:10.435Z,950.62
2018-03-19T02:44:10.388Z,950.68
2018-03-19T02:45:10.278Z,950.66
2018-03-19T02:46:10.371Z,950.68
2018-03-19T02:47:10.221Z,950.66
2018-03-19T02:48:10.184Z,950.65
2018-03-19T02:49:10.071Z,950.64
2018-03-19T02:50:10.014Z,950.63
2018-03-19T02:51:10.195Z,950.65
2018-03-19T02:52:09.935Z,950.64
2018-03-19T02:53:09.848Z,950.67
2018-03-19T02:54:09.833Z,950.64
2018-03-19T02:55:09.766Z,950.68
2018-03-19T02:56:09.752Z,950.68
2018-03-19T02:57:09.702Z,950.72
2018-03-19T02:58:09.604Z,950.71
2018-03-19T02:59:09.569Z,950.70
2018-03-19T03:01:41.505Z,950.74
2018-03-19T03:02:41.436Z,950.75
2018-03-19T03:03:41.416Z,950.74
2018-03-19T03:04:41.313Z,950.79
2018-03-19T03:05:41.286Z,950.74
2018-03-19T03:06:41.218Z,950.77
2018-03-19T03:07:41.158Z,950.79
2018-03-19T03:08:41.109Z,950.78
2018-03-19T03:09:41.038Z,950.78
2018-03-19T03:10:41.015Z,950.80
2018-03-19T03:11:40.929Z,950.77
2018-03-19T03:12:40.878Z,950.74
2018-03-19T03:13:40.822Z,950.79
2018-03-19T03:14:40.775Z,950.76
2018-03-19T03:15:40.746Z,950.75
2018-03-19T03:16:40.688Z,950.77
2018-03-19T03:17:40.620Z,950.83
2018-03-19T03:18:40.550Z,950.78
2018-03-19T03:19:40.498Z,950.78
2018-03-19T03:20:40.475Z,950.86
2018-03-19T03:21:40.390Z,950.81
2018-03-19T03:22:40.336Z,950.81
2018-03-19T03:23:40.278Z,950.84
2018-03-19T03:24:40.224Z,950.84
2018-03-19T03:25:40.205Z,950.83
2018-03-19T03:26:40.119Z,950.87
2018-03-19T03:27:40.059Z,950.82
2018-03-19T03:28:40.007Z,950.83
2018-03-19T03:29:39.953Z,950.84
2018-03-19T03:30:39.939Z,950.80
2018-03-19T03:31:39.842Z,950.82
2018-03-19T03:32:39.790Z,950.86
2018-03-19T03:33:39.736Z,950.85
2018-03-19T03:34:39.686Z,950.81
2018-03-19T03:35:39.660Z,950.80
2018-03-19T03:36:39.571Z,950.84
2018-03-19T03:37:39.523Z,950.82
2018-03-19T03:38:39.467Z,950.80
2018-03-19T03:39:39.403Z,950.81
2018-03-19T03:40:39.394Z,950.84
2018-03-19T03:41:39.299Z,950.81
2018-03-19T03:42:39.253Z,950.88
2018-03-19T03:43:39.192Z,950.85
2018-03-19T03:44:39.141Z,950.85
2018-03-19T03:45:39.115Z,950.79
2018-03-19T03:46:39.036Z,950.81
2018-03-19T03:47:38.981Z,950.81
2018-03-19T03:48:38.921Z,950.83
2018-03-19T03:49:38.864Z,950.86
2018-03-19T03:50:38.910Z,950.86
2018-03-19T03:51:38.804Z,950.88
2018-03-19T03:52:38.731Z,950.88
2018-03-19T03:53:38.656Z,950.83
2018-03-19T03:54:38.657Z,950.80
2018-03-19T03:55:38.642Z,950.86
2018-03-19T03:56:38.504Z,950.86
2018-03-19T03:57:38.433Z,950.84
2018-03-19T03:58:38.404Z,950.88
2018-03-19T03:59:38.318Z,950.83
2018-03-19T04:00:38.298Z,950.83
2018-03-19T04:01:38.251Z,950.85
2018-03-19T04:02:38.188Z,950.86
2018-03-19T04:03:38.130Z,950.87
2018-03-19T04:04:38.099Z,950.85
2018-03-19T04:05:38.058Z,950.88
2018-03-19T04:06:37.945Z,950.83
2018-03-19T04:07:37.917Z,950.87
2018-03-19T04:08:37.849Z,950.85
2018-03-19T04:09:37.841Z,950.83
2018-03-19T04:10:37.752Z,950.80
2018-03-19T04:11:37.700Z,950.80
2018-03-19T04:12:37.655Z,950.79
2018-03-19T04:13:37.562Z,950.83
2018-03-19T04:14:37.576Z,950.80
2018-03-19T04:15:37.516Z,950.86
2018-03-19T04:16:37.431Z,950.84
2018-03-19T04:17:37.351Z,950.87
2018-03-19T04:18:37.313Z,950.83
2018-03-19T04:19:37.236Z,950.84
2018-03-19T04:20:37.252Z,950.85
2018-03-19T04:21:37.146Z,950.85
2018-03-19T04:22:37.112Z,950.86
2018-03-19T04:23:37.045Z,950.86
2018-03-19T04:24:37.029Z,950.84
2018-03-19T04:25:36.949Z,950.86
2018-03-19T04:26:36.897Z,950.88
2018-03-19T04:27:36.842Z,950.85
2018-03-19T04:28:36.745Z,950.88
2018-03-19T04:29:36.715Z,950.90
2018-03-19T04:30:36.689Z,950.85
2018-03-19T04:31:36.661Z,950.89
2018-03-19T04:32:36.557Z,950.82
2018-03-19T04:33:36.492Z,950.81
2018-03-19T04:34:36.483Z,950.86
2018-03-19T04:35:36.432Z,950.86
2018-03-19T04:36:36.338Z,950.84
2018-03-19T04:37:36.317Z,950.84
2018-03-19T04:38:36.248Z,950.85
2018-03-19T04:39:36.169Z,950.85
2018-03-19T04:40:36.164Z,950.81
2018-03-19T04:41:36.081Z,950.84
2018-03-19T04:42:35.976Z,950.83
2018-03-19T04:43:35.950Z,950.89
2018-03-19T04:44:35.900Z,950.86
2018-03-19T04:45:35.894Z,950.82
2018-03-19T04:46:35.763Z,950.81
2018-03-19T04:47:35.741Z,950.87
2018-03-19T04:48:35.677Z,950.85
2018-03-19T04:49:35.636Z,950.89
2018-03-19T04:50:35.610Z,950.85
2018-03-19T04:51:35.506Z,950.84
2018-03-19T04:52:35.463Z,950.89
2018-03-19T04:53:35.468Z,950.86
2018-03-19T04:54:35.348Z,950.89
2018-03-19T04:55:35.328Z,950.88
2018-03-19T04:56:35.236Z,950.89
2018-03-19T04:57:35.184Z,950.94
2018-03-19T04:58:35.118Z,950.92
2018-03-19T04:59:35.045Z,950.90
2018-03-19T05:00:35.083Z,950.97
2018-03-19T05:01:34.968Z,950.93
2018-03-19T05:02:34.940Z,950.93
2018-03-19T05:03:34.901Z,950.91
2018-03-19T05:04:34.777Z,950.92
2018-03-19T05:05:34.757Z,950.95
2018-03-19T05:06:34.691Z,950.94
2018-03-19T05:07:34.657Z,950.91
2018-03-19T05:08:34.599Z,950.95
2018-03-19T05:09:34.504Z,950.96
2018-03-19T05:10:34.506Z,950.94
2018-03-19T05:11:34.424Z,950.94
2018-03-19T05:12:34.379Z,950.95
2018-03-19T05:13:34.322Z,950.95
2018-03-19T05:14:34.261Z,950.95
2018-03-19T05:15:34.208Z,951.00
2018-03-19T05:16:34.118Z,950.99
2018-03-19T05:17:34.114Z,950.95
2018-03-19T05:18:34.043Z,950.91
2018-03-19T05:19:33.968Z,950.92
2018-03-19T05:20:33.982Z,950.95
2018-03-19T05:21:33.872Z,950.94
2018-03-19T05:22:33.831Z,950.96
2018-03-19T05:23:33.776Z,950.98
2018-03-19T05:24:33.714Z,950.94
2018-03-19T05:25:33.703Z,951.00
2018-03-19T05:26:33.572Z,950.99
2018-03-19T05:27:33.556Z,951.02
2018-03-19T05:28:33.462Z,951.00
2018-03-19T05:29:33.422Z,951.00
2018-03-19T05:30:33.410Z,951.00
2018-03-19T05:31:33.368Z,951.04
2018-03-19T05:32:33.270Z,951.01
2018-03-19T05:33:33.224Z,951.02
2018-03-19T05:34:33.198Z,951.03
2018-03-19T05:35:33.108Z,951.05
2018-03-19T05:36:33.083Z,951.04
2018-03-19T05:37:33.034Z,951.05
2018-03-19T05:38:32.916Z,951.13
2018-03-19T05:39:32.884Z,951.05
2018-03-19T05:40:32.883Z,951.11
2018-03-19T05:41:32.772Z,951.09
2018-03-19T05:42:32.752Z,951.07
2018-03-19T05:43:32.677Z,951.09
2018-03-19T05:44:32.592Z,951.12
2018-03-19T05:45:32.566Z,951.11
2018-03-19T05:46:32.519Z,951.13
2018-03-19T05:47:32.466Z,951.13
2018-03-19T05:48:32.409Z,951.14
2018-03-19T05:49:32.345Z,951.17
2018-03-19T05:50:32.313Z,951.13
2018-03-19T05:51:32.263Z,951.12
2018-03-19T05:52:32.269Z,951.11
2018-03-19T05:53:32.142Z,951.13
2018-03-19T05:54:32.132Z,951.16
2018-03-19T05:55:32.030Z,951.19
2018-03-19T05:56:31.971Z,951.14
2018-03-19T05:57:31.935Z,951.17
2018-03-19T05:58:31.891Z,951.20
2018-03-19T05:59:31.817Z,951.23
2018-03-19T06:00:31.772Z,951.22
2018-03-19T06:01:31.674Z,951.25
2018-03-19T06:02:31.671Z,951.25
2018-03-19T06:03:31.573Z,951.26
2018-03-19T06:04:31.513Z,951.26
2018-03-19T06:05:31.478Z,951.28
2018-03-19T06:06:31.500Z,951.27
2018-03-19T06:07:31.412Z,951.29
2018-03-19T06:08:31.280Z,951.36
2018-03-19T06:09:31.225Z,951.35
2018-03-19T06:10:31.211Z,951.37
2018-03-19T06:11:31.170Z,951.37
2018-03-19T06:12:31.105Z,951.38
2018-03-19T06:13:31.030Z,951.36
2018-03-19T06:14:31.012Z,951.36
2018-03-19T06:15:30.986Z,951.40
2018-03-19T06:16:30.846Z,951.38
2018-03-19T06:17:30.795Z,951.40
2018-03-19T06:18:30.754Z,951.43
2018-03-19T06:19:30.680Z,951.42
2018-03-19T06:20:30.648Z,951.39
2018-03-19T06:21:30.630Z,951.42
2018-03-19T06:22:30.548Z,951.41
2018-03-19T06:23:30.472Z,951.46
2018-03-19T06:24:30.424Z,951.42
2018-03-19T06:25:30.360Z,951.47
2018-03-19T06:26:30.335Z,951.43
2018-03-19T06:27:30.262Z,951.50
2018-03-19T06:28:30.243Z,951.46
2018-03-19T06:29:30.149Z,951.49
2018-03-19T06:30:30.107Z,951.46
2018-03-19T06:31:30.046Z,951.50
2018-03-19T06:32:30.010Z,951.49
2018-03-19T06:33:29.935Z,951.53
2018-03-19T06:34:29.871Z,951.49
2018-03-19T06:35:29.815Z,951.54
2018-03-19T06:36:29.780Z,951.50
2018-03-19T06:37:29.711Z,951.52
2018-03-19T06:38:29.668Z,951.54
2018-03-19T06:39:29.600Z,951.53
2018-03-19T06:40:29.854Z,951.54
2018-03-19T06:41:29.494Z,951.57
2018-03-19T06:42:29.442Z,951.58
2018-03-19T06:43:29.389Z,951.56
2018-03-19T06:44:29.358Z,951.59
2018-03-19T06:45:29.360Z,951.63
2018-03-19T06:46:29.285Z,951.62
2018-03-19T06:47:29.169Z,951.61
2018-03-19T06:48:29.137Z,951.65
2018-03-19T06:49:29.081Z,951.58
2018-03-19T06:50:29.046Z,951.65
2018-03-19T06:51:29.078Z,951.62
2018-03-19T06:52:28.947Z,951.66
2018-03-19T06:53:28.868Z,951.66
2018-03-19T06:54:28.821Z,951.68
2018-03-19T06:55:28.792Z,951.70
2018-03-19T06:56:28.726Z,951.70
2018-03-19T06:57:28.653Z,951.70
2018-03-19T06:58:28.571Z,951.70
2018-03-19T06:59:28.592Z,951.71
2018-03-19T07:00:28.516Z,951.69
2018-03-19T07:01:28.452Z,951.74
2018-03-19T07:02:28.391Z,951.72
2018-03-19T07:03:28.334Z,951.70
2018-03-19T07:04:28.318Z,951.77
2018-03-19T07:05:28.252Z,951.79
2018-03-19T07:06:28.217Z,951.74
2018-03-19T07:07:28.088Z,951.71
2018-03-19T07:08:28.026Z,951.74
2018-03-19T07:09:28.002Z,951.74
2018-03-19T07:10:27.985Z,951.80
2018-03-19T07:11:27.895Z,951.80
2018-03-19T07:12:27.839Z,951.77
2018-03-19T07:13:27.881Z,951.76
2018-03-19T07:14:27.747Z,951.81
2018-03-19T07:15:27.663Z,951.81
2018-03-19T07:16:27.769Z,951.81
2018-03-19T07:17:27.585Z,951.84
2018-03-19T07:18:42.138Z,951.84
2018-03-19T07:19:27.469Z,951.89
2018-03-19T07:20:28.106Z,951.85
2018-03-19T07:21:27.380Z,951.89
2018-03-19T07:22:27.305Z,951.89
2018-03-19T07:23:27.316Z,951.87
2018-03-19T07:24:27.228Z,951.90
2018-03-19T07:25:27.160Z,951.89
2018-03-19T07:26:27.069Z,951.95
2018-03-19T07:27:27.022Z,951.93
2018-03-19T07:28:26.966Z,951.86
2018-03-19T07:29:26.956Z,951.89
2018-03-19T07:30:26.908Z,951.92
2018-03-19T07:31:26.801Z,951.91
2018-03-19T07:32:26.781Z,951.94
2018-03-19T07:33:26.766Z,952.01
2018-03-19T07:34:26.663Z,951.99
2018-03-19T07:35:26.627Z,952.00
2018-03-19T07:36:26.552Z,951.93
2018-03-19T07:37:26.570Z,951.95
2018-03-19T07:38:26.457Z,951.95
2018-03-19T07:39:26.425Z,951.99
2018-03-19T07:40:26.347Z,951.97
2018-03-19T07:41:26.294Z,952.01
2018-03-19T07:42:26.230Z,952.03
2018-03-19T07:43:26.176Z,952.04
2018-03-19T07:44:26.195Z,952.04
2018-03-19T07:45:26.075Z,952.06
2018-03-19T07:46:26.002Z,952.01
2018-03-19T07:47:25.976Z,952.04
2018-03-19T07:48:25.935Z,952.01
2018-03-19T07:49:26.166Z,952.06
2018-03-19T07:50:46.813Z,952.07
2018-03-19T07:51:25.799Z,952.06
2018-03-19T07:52:25.727Z,952.10
2018-03-19T07:53:25.675Z,952.10
2018-03-19T07:54:25.626Z,952.08
2018-03-19T07:55:25.548Z,952.13
2018-03-19T07:56:25.459Z,952.15
2018-03-19T07:57:25.526Z,952.13
2018-03-19T07:58:25.426Z,952.16
2018-03-19T07:59:25.451Z,952.22
2018-03-19T08:00:25.363Z,952.20
2018-03-19T08:01:25.478Z,952.17
2018-03-19T08:02:25.194Z,952.17
2018-03-19T08:03:25.636Z,952.17
2018-03-19T08:04:25.096Z,952.15
2018-03-19T08:05:46.043Z,952.12
2018-03-19T08:06:24.958Z,952.11
2018-03-19T08:07:24.869Z,952.10
2018-03-19T08:08:24.814Z,952.11
2018-03-19T08:09:24.780Z,952.10
2018-03-19T08:10:24.713Z,952.08
2018-03-19T08:11:24.664Z,952.12
2018-03-19T08:12:24.678Z,952.12
2018-03-19T08:13:24.546Z,952.17
2018-03-19T08:14:25.096Z,952.12
2018-03-19T08:15:24.523Z,952.13
2018-03-19T08:16:24.419Z,952.09
2018-03-19T08:17:24.392Z,952.08
2018-03-19T08:18:24.289Z,952.10
2018-03-19T08:19:24.273Z,952.10
2018-03-19T08:20:24.208Z,952.08
2018-03-19T08:21:24.157Z,952.11
2018-03-19T08:22:24.202Z,952.07
2018-03-19T08:23:24.048Z,952.13
2018-03-19T08:24:24.045Z,952.10
2018-03-19T08:25:24.039Z,952.11
2018-03-19T08:26:23.898Z,952.07
2018-03-19T08:27:23.836Z,952.16
2018-03-19T08:28:23.793Z,952.14
2018-03-19T08:29:23.733Z,952.11
2018-03-19T08:30:24.608Z,952.13
2018-03-19T08:31:24.096Z,952.16
2018-03-19T08:32:23.545Z,952.14
2018-03-19T08:33:23.490Z,952.18
2018-03-19T08:34:23.426Z,952.21
2018-03-19T08:35:23.381Z,952.24
2018-03-19T08:36:23.327Z,952.25
2018-03-19T08:37:23.301Z,952.20
2018-03-19T08:38:23.263Z,952.24
2018-03-19T08:39:23.165Z,952.16
2018-03-19T08:40:23.115Z,952.19
2018-03-19T08:41:23.065Z,952.19
2018-03-19T08:42:23.003Z,952.14
2018-03-19T08:43:22.952Z,952.21
2018-03-19T08:44:22.896Z,952.21
2018-03-19T08:45:22.848Z,952.23
2018-03-19T08:46:22.842Z,952.17
2018-03-19T08:47:22.747Z,952.20
2018-03-19T08:48:22.830Z,952.16
2018-03-19T08:49:22.653Z,952.18
2018-03-19T08:50:29.096Z,952.19
2018-03-19T08:51:22.527Z,952.21
2018-03-19T08:52:22.473Z,952.18
2018-03-19T08:53:22.547Z,952.21
2018-03-19T08:54:22.434Z,952.17
2018-03-19T08:55:22.305Z,952.17
2018-03-19T08:56:22.263Z,952.16
2018-03-19T08:57:22.218Z,952.14
2018-03-19T08:58:22.156Z,952.21
2018-03-19T08:59:22.104Z,952.15
2018-03-19T09:00:22.060Z,952.20
2018-03-19T09:01:22.062Z,952.20
2018-03-19T09:02:21.945Z,952.23
2018-03-19T09:03:21.903Z,952.24
2018-03-19T09:04:21.969Z,952.21
2018-03-19T09:05:21.846Z,952.24
2018-03-19T09:06:21.787Z,952.22
2018-03-19T09:07:21.748Z,952.21
2018-03-19T09:08:21.653Z,952.22
2018-03-19T09:09:21.602Z,952.27
2018-03-19T09:10:21.551Z,952.25
2018-03-19T09:11:21.594Z,952.30
2018-03-19T09:12:22.163Z,952.26
2018-03-19T09:13:21.411Z,952.27
2018-03-19T09:14:21.421Z,952.32
2018-03-19T09:15:21.396Z,952.24
2018-03-19T09:16:21.334Z,952.25
2018-03-19T09:17:21.159Z,952.21
2018-03-19T09:18:21.316Z,952.21
2018-03-19T09:19:21.050Z,952.27
2018-03-19T09:20:21.099Z,952.24
2018-03-19T09:21:20.970Z,952.29
2018-03-19T09:22:21.025Z,952.27
2018-03-19T09:23:20.848Z,952.27
2018-03-19T09:24:23.333Z,952.26
2018-03-19T09:25:20.870Z,952.31
2018-03-19T09:26:20.988Z,952.31
2018-03-19T09:27:20.652Z,952.34
2018-03-19T09:28:20.595Z,952.34
2018-03-19T09:29:20.568Z,952.34
2018-03-19T09:30:20.491Z,952.32
2018-03-19T09:31:20.448Z,952.35
2018-03-19T09:32:20.387Z,952.37
2018-03-19T09:33:20.319Z,952.40
2018-03-19T09:34:20.295Z,952.38
2018-03-19T09:35:20.268Z,952.37
2018-03-19T09:36:20.160Z,952.41
2018-03-19T09:37:20.140Z,952.35
2018-03-19T09:38:20.066Z,952.40
2018-03-19T09:39:20.015Z,952.39
2018-03-19T09:40:19.994Z,952.38
2018-03-19T09:41:19.972Z,952.43
2018-03-19T09:42:19.864Z,952.46
2018-03-19T09:43:19.830Z,952.42
2018-03-19T09:44:19.760Z,952.43
2018-03-19T09:45:19.700Z,952.45
2018-03-19T09:46:19.666Z,952.40
2018-03-19T09:47:19.596Z,952.43
2018-03-19T09:48:19.542Z,952.44
2018-03-19T09:49:19.513Z,952.43
2018-03-19T09:50:20.099Z,952.43
2018-03-19T09:51:34.117Z,952.39
2018-03-19T09:52:19.405Z,952.44
2018-03-19T09:53:19.278Z,952.38
2018-03-19T09:54:19.229Z,952.46
2018-03-19T09:55:19.303Z,952.45
2018-03-19T09:56:19.164Z,952.44
2018-03-19T09:57:19.084Z,952.49
2018-03-19T09:58:19.027Z,952.44
2018-03-19T09:59:18.983Z,952.49
2018-03-19T10:00:18.911Z,952.52
2018-03-19T10:01:18.896Z,952.51
2018-03-19T10:02:19.600Z,952.49
2018-03-19T10:03:18.788Z,952.48
2018-03-19T10:04:18.733Z,952.42
2018-03-19T10:05:18.658Z,952.46
2018-03-19T10:06:18.616Z,952.42
2018-03-19T10:07:18.550Z,952.45
2018-03-19T10:08:18.518Z,952.41
2018-03-19T10:09:18.465Z,952.44
2018-03-19T10:10:18.402Z,952.41
2018-03-19T10:11:18.360Z,952.40
2018-03-19T10:12:18.305Z,952.36
2018-03-19T10:13:18.665Z,952.40
2018-03-19T10:14:18.194Z,952.38
2018-03-19T10:15:18.143Z,952.38
2018-03-19T10:16:18.132Z,952.42
2018-03-19T10:17:18.062Z,952.46
2018-03-19T10:18:17.998Z,952.44
2018-03-19T10:19:17.946Z,952.46
2018-03-19T10:20:17.898Z,952.46
2018-03-19T10:21:17.823Z,952.47
2018-03-19T10:22:17.793Z,952.46
2018-03-19T10:23:17.755Z,952.46
2018-03-19T10:24:17.890Z,952.44
2018-03-19T10:25:17.728Z,952.48
2018-03-19T10:26:17.638Z,952.50
2018-03-19T10:27:17.574Z,952.51
2018-03-19T10:28:17.502Z,952.50
2018-03-19T10:29:17.484Z,952.50
2018-03-19T10:30:17.415Z,952.46
2018-03-19T10:31:17.369Z,952.47
2018-03-19T10:32:17.311Z,952.50
2018-03-19T10:33:17.290Z,952.48
2018-03-19T10:34:17.192Z,952.48
2018-03-19T10:35:17.131Z,952.47
2018-03-19T10:36:17.080Z,952.51
2018-03-19T10:37:17.015Z,952.48
2018-03-19T10:38:16.995Z,952.49
2018-03-19T10:39:17.011Z,952.49
2018-03-19T10:40:16.919Z,952.48
2018-03-19T10:41:16.875Z,952.47
2018-03-19T10:42:16.894Z,952.49
2018-03-19T10:43:16.757Z,952.47
2018-03-19T10:44:16.706Z,952.49
2018-03-19T10:45:16.642Z,952.47
2018-03-19T10:46:16.563Z,952.50
2018-03-19T10:47:16.704Z,952.47
2018-03-19T10:48:16.473Z,952.52
2018-03-19T10:49:16.397Z,952.50
2018-03-19T10:50:16.415Z,952.51
2018-03-19T10:51:16.316Z,952.50
2018-03-19T10:52:16.412Z,952.55
2018-03-19T10:53:16.200Z,952.55
2018-03-19T10:54:16.159Z,952.57
2018-03-19T10:55:16.232Z,952.58
2018-03-19T10:56:16.133Z,952.59
2018-03-19T10:57:16.051Z,952.58
2018-03-19T10:58:16.054Z,952.60
2018-03-19T10:59:15.935Z,952.53
2018-03-19T11:00:15.850Z,952.57
2018-03-19T11:01:15.850Z,952.59
2018-03-19T11:02:15.730Z,952.57
2018-03-19T11:03:15.659Z,952.64
2018-03-19T11:04:15.620Z,952.58
2018-03-19T11:05:15.586Z,952.57
2018-03-19T11:06:15.539Z,952.55
2018-03-19T11:07:15.512Z,952.58
2018-03-19T11:08:15.414Z,952.57
2018-03-19T11:09:15.367Z,952.52
2018-03-19T11:10:15.309Z,952.54
2018-03-19T11:11:15.255Z,952.58
2018-03-19T11:12:15.234Z,952.55
2018-03-19T11:13:15.187Z,952.57
2018-03-19T11:14:15.161Z,952.56
2018-03-19T11:15:15.164Z,952.56
2018-03-19T11:16:15.120Z,952.60
2018-03-19T11:17:15.085Z,952.59
2018-03-19T11:18:15.036Z,952.59
2018-03-19T11:19:15.067Z,952.54
2018-03-19T11:20:14.879Z,952.56
2018-03-19T11:21:14.742Z,952.55
2018-03-19T11:22:14.686Z,952.55
2018-03-19T11:23:14.639Z,952.59
2018-03-19T11:24:14.588Z,952.61
2018-03-19T11:25:14.536Z,952.54
2018-03-19T11:26:14.487Z,952.54
2018-03-19T11:27:14.493Z,952.53
2018-03-19T11:28:14.417Z,952.52
2018-03-19T11:29:14.324Z,952.48
2018-03-19T11:30:14.411Z,952.48
2018-03-19T11:31:14.251Z,952.48
2018-03-19T11:32:14.178Z,952.52
2018-03-19T11:33:14.121Z,952.49
2018-03-19T11:34:15.339Z,952.47
2018-03-19T11:35:14.097Z,952.48
2018-03-19T11:36:14.127Z,952.49
2018-03-19T11:37:14.000Z,952.53
2018-03-19T11:38:19.771Z,952.54
2018-03-19T11:39:14.071Z,952.54
2018-03-19T11:40:13.786Z,952.48
2018-03-19T11:41:13.721Z,952.51
2018-03-19T11:42:13.648Z,952.52
2018-03-19T11:43:13.620Z,952.53
2018-03-19T11:44:13.561Z,952.54
2018-03-19T11:45:13.501Z,952.51
2018-03-19T11:46:13.457Z,952.52
2018-03-19T11:47:13.414Z,952.49
2018-03-19T11:48:13.352Z,952.49
2018-03-19T11:49:13.301Z,952.46
2018-03-19T11:50:13.244Z,952.49
2018-03-19T11:51:13.303Z,952.42
2018-03-19T11:52:13.140Z,952.44
2018-03-19T11:53:13.190Z,952.45
2018-03-19T11:54:13.053Z,952.43
2018-03-19T11:55:13.011Z,952.39
2018-03-19T11:56:12.967Z,952.39
2018-03-19T11:57:12.896Z,952.36
2018-03-19T11:58:12.859Z,952.37
2018-03-19T11:59:12.837Z,952.40
2018-03-19T12:00:12.729Z,952.33
2018-03-19T12:01:12.725Z,952.34
2018-03-19T12:02:12.642Z,952.38
2018-03-19T12:03:12.616Z,952.40
2018-03-19T12:04:13.169Z,952.38
2018-03-19T12:05:12.485Z,952.34
2018-03-19T12:06:12.423Z,952.37
2018-03-19T12:07:12.410Z,952.37
2018-03-19T12:08:12.316Z,952.39
2018-03-19T12:09:12.329Z,952.39
2018-03-19T12:10:12.221Z,952.35
2018-03-19T12:11:12.170Z,952.41
2018-03-19T12:12:12.337Z,952.39
2018-03-19T12:13:12.061Z,952.35
2018-03-19T12:14:12.101Z,952.37
2018-03-19T12:15:11.972Z,952.38
2018-03-19T12:16:11.909Z,952.37
2018-03-19T12:17:11.878Z,952.36
2018-03-19T12:18:11.820Z,952.37
2018-03-19T12:19:11.761Z,952.37
2018-03-19T12:20:11.708Z,952.40
2018-03-19T12:21:11.658Z,952.33
2018-03-19T12:22:11.609Z,952.37
2018-03-19T12:23:18.124Z,952.34
2018-03-19T12:24:11.499Z,952.35
2018-03-19T12:25:11.455Z,952.39
2018-03-19T12:26:11.399Z,952.37
2018-03-19T12:27:11.350Z,952.37
2018-03-19T12:28:11.300Z,952.38
2018-03-19T12:29:11.250Z,952.36